sensor_id;sensor_type;location;lat;lon;timestamp;P1;durP1;ratioP1;P2;durP2;ratioP2
28335;SDS011;15592;53.656;7.276;2023-12-28T00:01:45;10.05;;;6.32;;
28335;SDS011;15592;53.656;7.276;2023-12-28T00:04:11;10.82;;;6.18;;
28335;SDS011;15592;53.656;7.276;2023-12-28T00:06:37;9.52;;;5.95;;
28335;SDS011;15592;53.656;7.276;2023-12-28T00:09:03;9.85;;;6.15;;
28335;SDS011;15592;53.656;7.276;2023-12-28T00:11:29;12.20;;;6.57;;
28335;SDS011;15592;53.656;7.276;2023-12-28T00:13:55;11.57;;;6.20;;
28335;SDS011;15592;53.656;7.276;2023-12-28T00:16:21;8.82;;;5.95;;
28335;SDS011;15592;53.656;7.276;2023-12-28T00:18:47;9.20;;;6.20;;
28335;SDS011;15592;53.656;7.276;2023-12-28T00:21:13;8.93;;;5.97;;
28335;SDS011;15592;53.656;7.276;2023-12-28T00:23:39;11.27;;;6.20;;
28335;SDS011;15592;53.656;7.276;2023-12-28T00:26:05;9.30;;;5.78;;
28335;SDS011;15592;53.656;7.276;2023-12-28T00:28:31;15.00;;;6.25;;
28335;SDS011;15592;53.656;7.276;2023-12-28T00:30:57;12.45;;;6.45;;
28335;SDS011;15592;53.656;7.276;2023-12-28T00:33:23;12.20;;;6.15;;
28335;SDS011;15592;53.656;7.276;2023-12-28T00:35:49;8.27;;;5.57;;
28335;SDS011;15592;53.656;7.276;2023-12-28T00:38:15;9.10;;;6.03;;
28335;SDS011;15592;53.656;7.276;2023-12-28T00:40:41;9.25;;;5.20;;
28335;SDS011;15592;53.656;7.276;2023-12-28T00:43:07;7.93;;;5.63;;
28335;SDS011;15592;53.656;7.276;2023-12-28T00:45:33;10.45;;;5.60;;
28335;SDS011;15592;53.656;7.276;2023-12-28T00:47:59;9.85;;;5.65;;
28335;SDS011;15592;53.656;7.276;2023-12-28T00:50:25;11.35;;;5.38;;
28335;SDS011;15592;53.656;7.276;2023-12-28T00:52:56;8.32;;;5.93;;
28335;SDS011;15592;53.656;7.276;2023-12-28T00:55:22;10.73;;;5.82;;
28335;SDS011;15592;53.656;7.276;2023-12-28T00:57:48;10.27;;;5.30;;
28335;SDS011;15592;53.656;7.276;2023-12-28T01:00:14;13.75;;;6.00;;
28335;SDS011;15592;53.656;7.276;2023-12-28T01:02:43;11.52;;;6.15;;
28335;SDS011;15592;53.656;7.276;2023-12-28T01:05:12;9.05;;;5.78;;
28335;SDS011;15592;53.656;7.276;2023-12-28T01:07:38;12.50;;;6.07;;
28335;SDS011;15592;53.656;7.276;2023-12-28T01:10:04;12.95;;;6.07;;
28335;SDS011;15592;53.656;7.276;2023-12-28T01:12:30;9.68;;;5.90;;
28335;SDS011;15592;53.656;7.276;2023-12-28T01:14:56;9.35;;;5.72;;
28335;SDS011;15592;53.656;7.276;2023-12-28T01:17:22;9.93;;;5.90;;
28335;SDS011;15592;53.656;7.276;2023-12-28T01:19:48;8.57;;;5.72;;
28335;SDS011;15592;53.656;7.276;2023-12-28T01:22:14;9.73;;;5.95;;
28335;SDS011;15592;53.656;7.276;2023-12-28T01:24:45;10.77;;;5.72;;
28335;SDS011;15592;53.656;7.276;2023-12-28T01:27:12;10.15;;;5.57;;
28335;SDS011;15592;53.656;7.276;2023-12-28T01:29:38;11.18;;;5.55;;
28335;SDS011;15592;53.656;7.276;2023-12-28T01:32:04;9.60;;;6.03;;
28335;SDS011;15592;53.656;7.276;2023-12-28T01:34:30;11.82;;;5.82;;
28335;SDS011;15592;53.656;7.276;2023-12-28T01:36:56;18.10;;;6.00;;
28335;SDS011;15592;53.656;7.276;2023-12-28T01:39:22;9.07;;;5.82;;
28335;SDS011;15592;53.656;7.276;2023-12-28T01:41:48;14.75;;;6.40;;
28335;SDS011;15592;53.656;7.276;2023-12-28T01:44:14;9.68;;;5.32;;
28335;SDS011;15592;53.656;7.276;2023-12-28T01:46:40;14.38;;;5.55;;
28335;SDS011;15592;53.656;7.276;2023-12-28T01:49:07;21.70;;;6.97;;
28335;SDS011;15592;53.656;7.276;2023-12-28T01:51:33;12.00;;;5.70;;
28335;SDS011;15592;53.656;7.276;2023-12-28T01:54:00;17.80;;;6.38;;
28335;SDS011;15592;53.656;7.276;2023-12-28T01:56:26;12.23;;;6.40;;
28335;SDS011;15592;53.656;7.276;2023-12-28T01:58:52;13.48;;;5.43;;
28335;SDS011;15592;53.656;7.276;2023-12-28T02:01:19;14.32;;;5.60;;
28335;SDS011;15592;53.656;7.276;2023-12-28T02:03:45;18.23;;;4.70;;
28335;SDS011;15592;53.656;7.276;2023-12-28T02:06:12;16.35;;;5.38;;
28335;SDS011;15592;53.656;7.276;2023-12-28T02:08:41;12.52;;;5.10;;
28335;SDS011;15592;53.656;7.276;2023-12-28T02:11:07;15.00;;;4.40;;
28335;SDS011;15592;53.656;7.276;2023-12-28T02:13:33;19.58;;;5.50;;
28335;SDS011;15592;53.656;7.276;2023-12-28T02:16:14;18.38;;;5.63;;
28335;SDS011;15592;53.656;7.276;2023-12-28T02:18:46;11.95;;;4.95;;
28335;SDS011;15592;53.656;7.276;2023-12-28T02:21:13;13.75;;;4.78;;
28335;SDS011;15592;53.656;7.276;2023-12-28T02:23:46;20.77;;;4.80;;
28335;SDS011;15592;53.656;7.276;2023-12-28T02:26:12;16.38;;;4.90;;
28335;SDS011;15592;53.656;7.276;2023-12-28T02:28:38;19.25;;;5.05;;
28335;SDS011;15592;53.656;7.276;2023-12-28T02:31:04;17.60;;;4.68;;
28335;SDS011;15592;53.656;7.276;2023-12-28T02:34:15;21.70;;;4.93;;
28335;SDS011;15592;53.656;7.276;2023-12-28T02:36:23;15.40;;;4.47;;
28335;SDS011;15592;53.656;7.276;2023-12-28T02:38:49;26.85;;;4.85;;
28335;SDS011;15592;53.656;7.276;2023-12-28T02:41:16;19.48;;;4.82;;
28335;SDS011;15592;53.656;7.276;2023-12-28T02:43:43;14.50;;;4.70;;
28335;SDS011;15592;53.656;7.276;2023-12-28T02:46:09;20.55;;;5.53;;
28335;SDS011;15592;53.656;7.276;2023-12-28T02:48:35;24.25;;;5.40;;
28335;SDS011;15592;53.656;7.276;2023-12-28T02:51:01;21.63;;;5.65;;
28335;SDS011;15592;53.656;7.276;2023-12-28T02:53:27;15.45;;;4.82;;
28335;SDS011;15592;53.656;7.276;2023-12-28T02:55:53;19.17;;;4.93;;
28335;SDS011;15592;53.656;7.276;2023-12-28T02:58:19;18.67;;;4.78;;
28335;SDS011;15592;53.656;7.276;2023-12-28T03:00:46;19.40;;;5.03;;
28335;SDS011;15592;53.656;7.276;2023-12-28T03:03:14;13.32;;;4.70;;
28335;SDS011;15592;53.656;7.276;2023-12-28T03:05:40;15.40;;;4.63;;
28335;SDS011;15592;53.656;7.276;2023-12-28T03:08:06;19.52;;;4.72;;
28335;SDS011;15592;53.656;7.276;2023-12-28T03:10:32;24.60;;;5.15;;
28335;SDS011;15592;53.656;7.276;2023-12-28T03:12:58;16.00;;;4.63;;
28335;SDS011;15592;53.656;7.276;2023-12-28T03:15:25;17.38;;;4.70;;
28335;SDS011;15592;53.656;7.276;2023-12-28T03:17:51;14.85;;;5.20;;
28335;SDS011;15592;53.656;7.276;2023-12-28T03:20:18;19.42;;;5.00;;
28335;SDS011;15592;53.656;7.276;2023-12-28T03:22:44;17.30;;;5.07;;
28335;SDS011;15592;53.656;7.276;2023-12-28T03:25:10;22.70;;;5.10;;
28335;SDS011;15592;53.656;7.276;2023-12-28T03:27:36;20.85;;;4.60;;
28335;SDS011;15592;53.656;7.276;2023-12-28T03:30:02;15.43;;;4.05;;
28335;SDS011;15592;53.656;7.276;2023-12-28T03:32:28;19.35;;;4.57;;
28335;SDS011;15592;53.656;7.276;2023-12-28T03:34:54;12.48;;;4.05;;
28335;SDS011;15592;53.656;7.276;2023-12-28T03:37:20;16.85;;;4.38;;
28335;SDS011;15592;53.656;7.276;2023-12-28T03:39:46;15.90;;;4.82;;
28335;SDS011;15592;53.656;7.276;2023-12-28T03:42:13;16.67;;;4.10;;
28335;SDS011;15592;53.656;7.276;2023-12-28T03:44:39;20.88;;;4.78;;
28335;SDS011;15592;53.656;7.276;2023-12-28T03:47:06;24.02;;;4.60;;
28335;SDS011;15592;53.656;7.276;2023-12-28T03:49:32;19.60;;;4.35;;
28335;SDS011;15592;53.656;7.276;2023-12-28T03:51:58;21.48;;;4.90;;
28335;SDS011;15592;53.656;7.276;2023-12-28T03:54:24;25.27;;;5.30;;
28335;SDS011;15592;53.656;7.276;2023-12-28T03:56:50;17.33;;;4.30;;
28335;SDS011;15592;53.656;7.276;2023-12-28T03:59:16;16.90;;;4.60;;
28335;SDS011;15592;53.656;7.276;2023-12-28T04:01:42;24.10;;;5.35;;
28335;SDS011;15592;53.656;7.276;2023-12-28T04:04:12;16.63;;;4.27;;
28335;SDS011;15592;53.656;7.276;2023-12-28T04:06:38;20.35;;;4.65;;
28335;SDS011;15592;53.656;7.276;2023-12-28T04:09:04;18.25;;;5.53;;
28335;SDS011;15592;53.656;7.276;2023-12-28T04:11:30;13.60;;;4.20;;
28335;SDS011;15592;53.656;7.276;2023-12-28T04:13:56;14.98;;;4.28;;
28335;SDS011;15592;53.656;7.276;2023-12-28T04:16:22;17.23;;;4.50;;
28335;SDS011;15592;53.656;7.276;2023-12-28T04:18:48;14.95;;;4.10;;
28335;SDS011;15592;53.656;7.276;2023-12-28T04:21:14;20.88;;;5.72;;
28335;SDS011;15592;53.656;7.276;2023-12-28T04:23:40;19.70;;;3.97;;
28335;SDS011;15592;53.656;7.276;2023-12-28T04:26:07;21.33;;;4.32;;
28335;SDS011;15592;53.656;7.276;2023-12-28T04:28:33;20.23;;;4.97;;
28335;SDS011;15592;53.656;7.276;2023-12-28T04:31:05;23.13;;;5.90;;
28335;SDS011;15592;53.656;7.276;2023-12-28T04:33:34;16.58;;;4.13;;
28335;SDS011;15592;53.656;7.276;2023-12-28T04:36:00;18.05;;;3.95;;
28335;SDS011;15592;53.656;7.276;2023-12-28T04:38:28;14.77;;;4.68;;
28335;SDS011;15592;53.656;7.276;2023-12-28T04:40:55;15.50;;;3.80;;
28335;SDS011;15592;53.656;7.276;2023-12-28T04:43:21;13.70;;;4.78;;
28335;SDS011;15592;53.656;7.276;2023-12-28T04:45:48;14.90;;;4.03;;
28335;SDS011;15592;53.656;7.276;2023-12-28T04:48:14;20.27;;;4.20;;
28335;SDS011;15592;53.656;7.276;2023-12-28T04:50:40;18.38;;;4.30;;
28335;SDS011;15592;53.656;7.276;2023-12-28T04:53:06;23.30;;;4.85;;
28335;SDS011;15592;53.656;7.276;2023-12-28T04:55:32;18.77;;;3.67;;
28335;SDS011;15592;53.656;7.276;2023-12-28T04:57:58;15.63;;;3.88;;
28335;SDS011;15592;53.656;7.276;2023-12-28T05:00:24;18.25;;;4.35;;
28335;SDS011;15592;53.656;7.276;2023-12-28T05:02:50;17.00;;;3.78;;
28335;SDS011;15592;53.656;7.276;2023-12-28T05:05:16;16.55;;;3.78;;
28335;SDS011;15592;53.656;7.276;2023-12-28T05:07:42;19.20;;;4.07;;
28335;SDS011;15592;53.656;7.276;2023-12-28T05:10:08;14.25;;;3.22;;
28335;SDS011;15592;53.656;7.276;2023-12-28T05:12:37;20.92;;;3.80;;
28335;SDS011;15592;53.656;7.276;2023-12-28T05:15:04;18.23;;;3.75;;
28335;SDS011;15592;53.656;7.276;2023-12-28T05:17:32;17.35;;;4.00;;
28335;SDS011;15592;53.656;7.276;2023-12-28T05:20:01;24.83;;;3.97;;
28335;SDS011;15592;53.656;7.276;2023-12-28T05:22:27;22.20;;;4.18;;
28335;SDS011;15592;53.656;7.276;2023-12-28T05:24:59;20.95;;;3.88;;
28335;SDS011;15592;53.656;7.276;2023-12-28T05:27:25;16.73;;;4.03;;
28335;SDS011;15592;53.656;7.276;2023-12-28T05:29:51;20.00;;;4.35;;
28335;SDS011;15592;53.656;7.276;2023-12-28T05:32:17;17.02;;;3.85;;
28335;SDS011;15592;53.656;7.276;2023-12-28T05:34:43;20.50;;;3.40;;
28335;SDS011;15592;53.656;7.276;2023-12-28T05:37:09;23.13;;;4.13;;
28335;SDS011;15592;53.656;7.276;2023-12-28T05:39:35;17.80;;;4.05;;
28335;SDS011;15592;53.656;7.276;2023-12-28T05:42:01;18.35;;;4.40;;
28335;SDS011;15592;53.656;7.276;2023-12-28T05:44:27;22.95;;;5.13;;
28335;SDS011;15592;53.656;7.276;2023-12-28T05:46:53;19.42;;;3.90;;
28335;SDS011;15592;53.656;7.276;2023-12-28T05:49:18;24.77;;;4.80;;
28335;SDS011;15592;53.656;7.276;2023-12-28T05:51:44;23.73;;;3.78;;
28335;SDS011;15592;53.656;7.276;2023-12-28T05:54:11;24.27;;;4.57;;
28335;SDS011;15592;53.656;7.276;2023-12-28T05:56:37;16.45;;;3.60;;
28335;SDS011;15592;53.656;7.276;2023-12-28T05:59:03;20.98;;;3.90;;
28335;SDS011;15592;53.656;7.276;2023-12-28T06:01:29;23.17;;;3.80;;
28335;SDS011;15592;53.656;7.276;2023-12-28T06:04:13;25.50;;;4.35;;
28335;SDS011;15592;53.656;7.276;2023-12-28T06:06:45;20.20;;;4.28;;
28335;SDS011;15592;53.656;7.276;2023-12-28T06:09:20;19.60;;;4.43;;
28335;SDS011;15592;53.656;7.276;2023-12-28T06:11:52;22.60;;;5.20;;
28335;SDS011;15592;53.656;7.276;2023-12-28T06:14:30;23.30;;;4.30;;
28335;SDS011;15592;53.656;7.276;2023-12-28T06:16:56;23.55;;;4.53;;
28335;SDS011;15592;53.656;7.276;2023-12-28T06:19:27;19.95;;;4.75;;
28335;SDS011;15592;53.656;7.276;2023-12-28T06:21:56;22.60;;;4.88;;
28335;SDS011;15592;53.656;7.276;2023-12-28T06:24:37;27.83;;;4.43;;
28335;SDS011;15592;53.656;7.276;2023-12-28T06:27:05;23.10;;;4.10;;
28335;SDS011;15592;53.656;7.276;2023-12-28T06:29:37;25.80;;;4.55;;
28335;SDS011;15592;53.656;7.276;2023-12-28T06:32:03;23.15;;;3.97;;
28335;SDS011;15592;53.656;7.276;2023-12-28T06:34:29;21.58;;;4.30;;
28335;SDS011;15592;53.656;7.276;2023-12-28T06:36:55;22.60;;;4.30;;
28335;SDS011;15592;53.656;7.276;2023-12-28T06:39:21;25.65;;;4.55;;
28335;SDS011;15592;53.656;7.276;2023-12-28T06:54:11;27.95;;;5.07;;
28335;SDS011;15592;53.656;7.276;2023-12-28T06:56:58;23.33;;;3.90;;
28335;SDS011;15592;53.656;7.276;2023-12-28T06:59:24;29.67;;;4.72;;
28335;SDS011;15592;53.656;7.276;2023-12-28T07:01:50;28.60;;;4.90;;
28335;SDS011;15592;53.656;7.276;2023-12-28T07:04:16;25.42;;;4.10;;
28335;SDS011;15592;53.656;7.276;2023-12-28T07:06:42;27.15;;;5.28;;
28335;SDS011;15592;53.656;7.276;2023-12-28T07:09:08;23.15;;;4.43;;
28335;SDS011;15592;53.656;7.276;2023-12-28T07:11:34;17.90;;;3.60;;
28335;SDS011;15592;53.656;7.276;2023-12-28T07:14:00;30.17;;;4.50;;
28335;SDS011;15592;53.656;7.276;2023-12-28T07:16:26;24.67;;;4.45;;
28335;SDS011;15592;53.656;7.276;2023-12-28T07:18:52;27.58;;;4.78;;
28335;SDS011;15592;53.656;7.276;2023-12-28T07:21:18;20.83;;;4.50;;
28335;SDS011;15592;53.656;7.276;2023-12-28T07:23:44;24.08;;;4.88;;
28335;SDS011;15592;53.656;7.276;2023-12-28T07:26:14;26.98;;;4.63;;
28335;SDS011;15592;53.656;7.276;2023-12-28T07:28:40;27.52;;;4.25;;
28335;SDS011;15592;53.656;7.276;2023-12-28T07:31:08;22.58;;;4.50;;
28335;SDS011;15592;53.656;7.276;2023-12-28T07:33:34;25.90;;;3.97;;
28335;SDS011;15592;53.656;7.276;2023-12-28T07:36:00;25.40;;;4.25;;
28335;SDS011;15592;53.656;7.276;2023-12-28T07:38:32;28.67;;;3.90;;
28335;SDS011;15592;53.656;7.276;2023-12-28T07:40:58;18.10;;;4.20;;
28335;SDS011;15592;53.656;7.276;2023-12-28T07:43:24;23.13;;;4.15;;
28335;SDS011;15592;53.656;7.276;2023-12-28T07:45:53;18.45;;;4.05;;
28335;SDS011;15592;53.656;7.276;2023-12-28T07:48:20;27.02;;;4.28;;
28335;SDS011;15592;53.656;7.276;2023-12-28T07:50:46;23.67;;;4.28;;
28335;SDS011;15592;53.656;7.276;2023-12-28T07:53:12;17.83;;;4.25;;
28335;SDS011;15592;53.656;7.276;2023-12-28T07:55:38;31.67;;;5.43;;
28335;SDS011;15592;53.656;7.276;2023-12-28T07:58:04;20.13;;;4.32;;
28335;SDS011;15592;53.656;7.276;2023-12-28T08:00:30;28.50;;;5.32;;
28335;SDS011;15592;53.656;7.276;2023-12-28T08:02:56;28.33;;;4.80;;
28335;SDS011;15592;53.656;7.276;2023-12-28T08:05:22;25.48;;;4.35;;
28335;SDS011;15592;53.656;7.276;2023-12-28T08:07:56;37.45;;;4.80;;
28335;SDS011;15592;53.656;7.276;2023-12-28T08:10:25;33.88;;;4.50;;
28335;SDS011;15592;53.656;7.276;2023-12-28T08:13:01;21.98;;;4.45;;
28335;SDS011;15592;53.656;7.276;2023-12-28T08:15:27;31.90;;;5.68;;
28335;SDS011;15592;53.656;7.276;2023-12-28T08:17:52;34.53;;;4.70;;
28335;SDS011;15592;53.656;7.276;2023-12-28T08:20:18;24.45;;;5.30;;
28335;SDS011;15592;53.656;7.276;2023-12-28T08:22:44;35.05;;;5.10;;
28335;SDS011;15592;53.656;7.276;2023-12-28T08:25:11;30.20;;;4.78;;
28335;SDS011;15592;53.656;7.276;2023-12-28T08:27:37;34.17;;;4.45;;
28335;SDS011;15592;53.656;7.276;2023-12-28T08:30:03;34.17;;;5.32;;
28335;SDS011;15592;53.656;7.276;2023-12-28T08:32:29;28.77;;;4.55;;
28335;SDS011;15592;53.656;7.276;2023-12-28T08:34:55;30.27;;;5.13;;
28335;SDS011;15592;53.656;7.276;2023-12-28T08:37:21;29.83;;;4.90;;
28335;SDS011;15592;53.656;7.276;2023-12-28T08:39:47;34.42;;;5.05;;
28335;SDS011;15592;53.656;7.276;2023-12-28T08:42:13;30.05;;;5.43;;
28335;SDS011;15592;53.656;7.276;2023-12-28T08:44:39;36.85;;;6.45;;
28335;SDS011;15592;53.656;7.276;2023-12-28T08:47:05;29.55;;;5.20;;
28335;SDS011;15592;53.656;7.276;2023-12-28T08:49:31;37.67;;;5.22;;
28335;SDS011;15592;53.656;7.276;2023-12-28T08:51:58;30.10;;;4.82;;
28335;SDS011;15592;53.656;7.276;2023-12-28T08:54:27;35.15;;;5.55;;
28335;SDS011;15592;53.656;7.276;2023-12-28T08:56:53;30.88;;;5.30;;
28335;SDS011;15592;53.656;7.276;2023-12-28T08:59:19;38.20;;;5.47;;
28335;SDS011;15592;53.656;7.276;2023-12-28T09:01:45;37.05;;;5.20;;
28335;SDS011;15592;53.656;7.276;2023-12-28T09:04:12;27.23;;;5.10;;
28335;SDS011;15592;53.656;7.276;2023-12-28T09:06:39;39.67;;;6.57;;
28335;SDS011;15592;53.656;7.276;2023-12-28T09:09:05;39.08;;;6.60;;
28335;SDS011;15592;53.656;7.276;2023-12-28T09:11:31;38.88;;;5.85;;
28335;SDS011;15592;53.656;7.276;2023-12-28T09:13:57;30.05;;;5.18;;
28335;SDS011;15592;53.656;7.276;2023-12-28T09:16:24;42.67;;;6.88;;
28335;SDS011;15592;53.656;7.276;2023-12-28T09:18:51;44.70;;;6.20;;
28335;SDS011;15592;53.656;7.276;2023-12-28T09:21:17;36.47;;;6.55;;
28335;SDS011;15592;53.656;7.276;2023-12-28T09:23:43;31.60;;;4.57;;
28335;SDS011;15592;53.656;7.276;2023-12-28T09:26:09;29.70;;;4.78;;
28335;SDS011;15592;53.656;7.276;2023-12-28T09:28:35;30.55;;;5.60;;
28335;SDS011;15592;53.656;7.276;2023-12-28T09:31:01;33.70;;;6.03;;
28335;SDS011;15592;53.656;7.276;2023-12-28T09:36:32;37.20;;;5.95;;
28335;SDS011;15592;53.656;7.276;2023-12-28T09:39:01;31.17;;;6.32;;
28335;SDS011;15592;53.656;7.276;2023-12-28T09:41:29;40.22;;;6.10;;
28335;SDS011;15592;53.656;7.276;2023-12-28T09:44:07;37.05;;;5.75;;
28335;SDS011;15592;53.656;7.276;2023-12-28T09:46:33;44.60;;;7.10;;
28335;SDS011;15592;53.656;7.276;2023-12-28T09:49:06;33.40;;;6.28;;
28335;SDS011;15592;53.656;7.276;2023-12-28T09:51:32;34.65;;;6.22;;
28335;SDS011;15592;53.656;7.276;2023-12-28T09:54:02;32.35;;;5.55;;
28335;SDS011;15592;53.656;7.276;2023-12-28T09:56:29;45.92;;;7.20;;
28335;SDS011;15592;53.656;7.276;2023-12-28T09:58:55;30.88;;;5.95;;
28335;SDS011;15592;53.656;7.276;2023-12-28T10:01:22;31.35;;;5.65;;
28335;SDS011;15592;53.656;7.276;2023-12-28T10:03:48;38.03;;;6.32;;
28335;SDS011;15592;53.656;7.276;2023-12-28T10:06:14;33.70;;;5.35;;
28335;SDS011;15592;53.656;7.276;2023-12-28T10:08:47;41.45;;;6.65;;
28335;SDS011;15592;53.656;7.276;2023-12-28T10:11:17;44.17;;;6.90;;
28335;SDS011;15592;53.656;7.276;2023-12-28T10:13:43;29.90;;;4.85;;
28335;SDS011;15592;53.656;7.276;2023-12-28T10:16:10;32.15;;;5.78;;
28335;SDS011;15592;53.656;7.276;2023-12-28T10:18:40;31.13;;;6.03;;
28335;SDS011;15592;53.656;7.276;2023-12-28T10:21:07;29.75;;;5.35;;
28335;SDS011;15592;53.656;7.276;2023-12-28T10:23:33;33.20;;;6.03;;
28335;SDS011;15592;53.656;7.276;2023-12-28T10:25:59;36.67;;;6.32;;
28335;SDS011;15592;53.656;7.276;2023-12-28T10:28:25;37.85;;;6.07;;
28335;SDS011;15592;53.656;7.276;2023-12-28T10:30:55;37.30;;;6.88;;
28335;SDS011;15592;53.656;7.276;2023-12-28T10:33:21;42.13;;;7.03;;
28335;SDS011;15592;53.656;7.276;2023-12-28T10:35:49;47.90;;;7.43;;
28335;SDS011;15592;53.656;7.276;2023-12-28T10:38:16;30.38;;;5.45;;
28335;SDS011;15592;53.656;7.276;2023-12-28T10:40:42;45.22;;;6.32;;
28335;SDS011;15592;53.656;7.276;2023-12-28T10:43:11;36.15;;;6.80;;
28335;SDS011;15592;53.656;7.276;2023-12-28T10:45:37;43.20;;;6.78;;
28335;SDS011;15592;53.656;7.276;2023-12-28T10:50:45;43.35;;;6.28;;
28335;SDS011;15592;53.656;7.276;2023-12-28T10:58:46;40.08;;;6.28;;
28335;SDS011;15592;53.656;7.276;2023-12-28T11:01:13;46.25;;;6.93;;
28335;SDS011;15592;53.656;7.276;2023-12-28T11:03:42;38.92;;;6.50;;
28335;SDS011;15592;53.656;7.276;2023-12-28T11:06:09;45.13;;;7.40;;
28335;SDS011;15592;53.656;7.276;2023-12-28T11:08:35;45.67;;;6.78;;
28335;SDS011;15592;53.656;7.276;2023-12-28T11:11:01;29.48;;;6.18;;
28335;SDS011;15592;53.656;7.276;2023-12-28T11:13:29;36.13;;;5.68;;
28335;SDS011;15592;53.656;7.276;2023-12-28T11:15:56;28.65;;;4.63;;
28335;SDS011;15592;53.656;7.276;2023-12-28T11:18:24;34.35;;;5.88;;
28335;SDS011;15592;53.656;7.276;2023-12-28T11:20:51;34.25;;;6.20;;
28335;SDS011;15592;53.656;7.276;2023-12-28T11:23:20;32.38;;;5.25;;
28335;SDS011;15592;53.656;7.276;2023-12-28T11:25:55;25.17;;;4.80;;
28335;SDS011;15592;53.656;7.276;2023-12-28T11:28:22;30.40;;;5.25;;
28335;SDS011;15592;53.656;7.276;2023-12-28T11:30:49;28.05;;;5.20;;
28335;SDS011;15592;53.656;7.276;2023-12-28T11:33:17;24.40;;;4.75;;
28335;SDS011;15592;53.656;7.276;2023-12-28T11:35:43;34.28;;;4.95;;
28335;SDS011;15592;53.656;7.276;2023-12-28T11:38:09;33.08;;;5.75;;
28335;SDS011;15592;53.656;7.276;2023-12-28T11:40:42;32.20;;;5.63;;
28335;SDS011;15592;53.656;7.276;2023-12-28T11:43:15;31.02;;;5.43;;
28335;SDS011;15592;53.656;7.276;2023-12-28T11:45:46;32.13;;;5.40;;
28335;SDS011;15592;53.656;7.276;2023-12-28T11:48:14;32.85;;;6.22;;
28335;SDS011;15592;53.656;7.276;2023-12-28T11:50:48;35.25;;;6.65;;
28335;SDS011;15592;53.656;7.276;2023-12-28T11:53:14;31.85;;;6.07;;
28335;SDS011;15592;53.656;7.276;2023-12-28T11:55:41;26.45;;;5.03;;
28335;SDS011;15592;53.656;7.276;2023-12-28T11:58:07;30.05;;;6.35;;
28335;SDS011;15592;53.656;7.276;2023-12-28T12:00:33;28.77;;;5.00;;
28335;SDS011;15592;53.656;7.276;2023-12-28T12:02:59;33.83;;;5.43;;
28335;SDS011;15592;53.656;7.276;2023-12-28T12:05:25;38.95;;;5.68;;
28335;SDS011;15592;53.656;7.276;2023-12-28T12:07:51;38.90;;;6.43;;
28335;SDS011;15592;53.656;7.276;2023-12-28T12:10:17;28.50;;;5.70;;
28335;SDS011;15592;53.656;7.276;2023-12-28T12:12:43;21.83;;;4.68;;
28335;SDS011;15592;53.656;7.276;2023-12-28T12:15:09;32.05;;;6.32;;
28335;SDS011;15592;53.656;7.276;2023-12-28T12:17:36;35.67;;;5.88;;
28335;SDS011;15592;53.656;7.276;2023-12-28T12:20:02;26.02;;;5.93;;
28335;SDS011;15592;53.656;7.276;2023-12-28T12:22:29;42.28;;;5.93;;
28335;SDS011;15592;53.656;7.276;2023-12-28T12:24:55;33.50;;;4.97;;
28335;SDS011;15592;53.656;7.276;2023-12-28T12:27:22;38.67;;;6.53;;
28335;SDS011;15592;53.656;7.276;2023-12-28T12:29:48;33.03;;;5.75;;
28335;SDS011;15592;53.656;7.276;2023-12-28T12:32:14;39.25;;;6.50;;
28335;SDS011;15592;53.656;7.276;2023-12-28T12:34:40;22.23;;;5.47;;
28335;SDS011;15592;53.656;7.276;2023-12-28T12:37:06;29.88;;;5.03;;
28335;SDS011;15592;53.656;7.276;2023-12-28T12:39:32;41.40;;;5.75;;
28335;SDS011;15592;53.656;7.276;2023-12-28T12:41:58;41.83;;;6.63;;
28335;SDS011;15592;53.656;7.276;2023-12-28T12:44:26;38.22;;;5.40;;
28335;SDS011;15592;53.656;7.276;2023-12-28T12:46:56;31.95;;;4.75;;
28335;SDS011;15592;53.656;7.276;2023-12-28T12:49:23;32.28;;;5.63;;
28335;SDS011;15592;53.656;7.276;2023-12-28T12:51:50;26.38;;;5.30;;
28335;SDS011;15592;53.656;7.276;2023-12-28T12:54:16;41.30;;;5.57;;
28335;SDS011;15592;53.656;7.276;2023-12-28T12:56:46;43.05;;;7.18;;
28335;SDS011;15592;53.656;7.276;2023-12-28T12:59:12;42.58;;;6.45;;
28335;SDS011;15592;53.656;7.276;2023-12-28T13:01:45;34.30;;;5.85;;
28335;SDS011;15592;53.656;7.276;2023-12-28T13:04:14;29.70;;;5.68;;
28335;SDS011;15592;53.656;7.276;2023-12-28T13:06:41;43.22;;;6.53;;
28335;SDS011;15592;53.656;7.276;2023-12-28T13:09:08;35.85;;;6.35;;
28335;SDS011;15592;53.656;7.276;2023-12-28T13:11:36;43.45;;;6.07;;
28335;SDS011;15592;53.656;7.276;2023-12-28T13:14:02;41.80;;;6.40;;
28335;SDS011;15592;53.656;7.276;2023-12-28T13:16:29;27.38;;;5.55;;
28335;SDS011;15592;53.656;7.276;2023-12-28T13:18:55;32.42;;;6.47;;
28335;SDS011;15592;53.656;7.276;2023-12-28T13:21:22;37.90;;;5.68;;
28335;SDS011;15592;53.656;7.276;2023-12-28T13:23:48;43.20;;;6.90;;
28335;SDS011;15592;53.656;7.276;2023-12-28T13:26:14;32.72;;;6.10;;
28335;SDS011;15592;53.656;7.276;2023-12-28T13:28:40;36.35;;;6.40;;
28335;SDS011;15592;53.656;7.276;2023-12-28T13:31:07;43.17;;;6.25;;
28335;SDS011;15592;53.656;7.276;2023-12-28T13:33:33;30.83;;;5.90;;
28335;SDS011;15592;53.656;7.276;2023-12-28T13:35:59;51.20;;;7.30;;
28335;SDS011;15592;53.656;7.276;2023-12-28T13:38:25;44.10;;;6.05;;
28335;SDS011;15592;53.656;7.276;2023-12-28T13:40:52;37.40;;;6.03;;
28335;SDS011;15592;53.656;7.276;2023-12-28T13:43:18;39.45;;;6.15;;
28335;SDS011;15592;53.656;7.276;2023-12-28T13:45:44;36.90;;;5.50;;
28335;SDS011;15592;53.656;7.276;2023-12-28T13:48:10;27.52;;;5.45;;
28335;SDS011;15592;53.656;7.276;2023-12-28T13:50:36;36.40;;;6.30;;
28335;SDS011;15592;53.656;7.276;2023-12-28T13:53:02;41.28;;;6.60;;
28335;SDS011;15592;53.656;7.276;2023-12-28T13:55:31;41.05;;;6.70;;
28335;SDS011;15592;53.656;7.276;2023-12-28T13:57:58;37.05;;;5.80;;
28335;SDS011;15592;53.656;7.276;2023-12-28T14:00:24;31.60;;;5.20;;
28335;SDS011;15592;53.656;7.276;2023-12-28T14:02:50;26.65;;;5.53;;
28335;SDS011;15592;53.656;7.276;2023-12-28T14:05:17;37.65;;;6.05;;
28335;SDS011;15592;53.656;7.276;2023-12-28T14:07:44;36.53;;;6.07;;
28335;SDS011;15592;53.656;7.276;2023-12-28T14:10:10;34.15;;;5.93;;
28335;SDS011;15592;53.656;7.276;2023-12-28T14:12:36;39.47;;;5.97;;
28335;SDS011;15592;53.656;7.276;2023-12-28T14:15:02;34.08;;;5.88;;
28335;SDS011;15592;53.656;7.276;2023-12-28T14:17:28;47.47;;;6.25;;
28335;SDS011;15592;53.656;7.276;2023-12-28T14:19:55;35.90;;;6.22;;
28335;SDS011;15592;53.656;7.276;2023-12-28T14:22:21;23.67;;;4.90;;
28335;SDS011;15592;53.656;7.276;2023-12-28T14:24:47;32.38;;;5.35;;
28335;SDS011;15592;53.656;7.276;2023-12-28T14:27:14;40.75;;;6.68;;
28335;SDS011;15592;53.656;7.276;2023-12-28T14:29:40;39.15;;;6.18;;
28335;SDS011;15592;53.656;7.276;2023-12-28T14:32:06;37.47;;;6.13;;
28335;SDS011;15592;53.656;7.276;2023-12-28T14:34:32;34.35;;;5.97;;
28335;SDS011;15592;53.656;7.276;2023-12-28T14:36:58;36.78;;;5.28;;
28335;SDS011;15592;53.656;7.276;2023-12-28T14:39:24;34.47;;;5.20;;
28335;SDS011;15592;53.656;7.276;2023-12-28T14:41:50;36.88;;;6.07;;
28335;SDS011;15592;53.656;7.276;2023-12-28T14:44:16;27.52;;;5.95;;
28335;SDS011;15592;53.656;7.276;2023-12-28T14:46:42;35.78;;;5.93;;
28335;SDS011;15592;53.656;7.276;2023-12-28T14:49:08;37.20;;;6.60;;
28335;SDS011;15592;53.656;7.276;2023-12-28T14:51:34;38.45;;;7.00;;
28335;SDS011;15592;53.656;7.276;2023-12-28T14:54:00;30.98;;;6.45;;
28335;SDS011;15592;53.656;7.276;2023-12-28T14:56:27;30.33;;;5.32;;
28335;SDS011;15592;53.656;7.276;2023-12-28T14:58:53;33.42;;;5.68;;